Detall de PIREP

Printer-friendly versionPDF version

[2012/12/07 11:11:00]
Flight IATA:CT1005
Pilot Number:042
Company ICAO:CAT
Aircraft Type:B738/F
PAX:98
Departing Airport: LGRP
Destination Airport: LBSF
Alternate Airport:LBPD
Online: VATSIM
Route: YUNUS UN128 MILAS UG80 AKBUK UN618 IMR UN128 ERESO UN127 LMO UN128 PEREN UN133 EVIVI N133 VANET
Flight Level:F340
No Slew and time accel
No pause
Crash detect
Detect pilot in Cockpit between each 30 and 45 minutes
11:11 Zero fuel Weight: 115600 Lbs, Fuel Weight: 46058 Lbs
11:11 VATSIM:LGRP 071050Z 22014KT 9999 FEW018TCU SCT025 18/08 Q1008 NOSIG
11:11 VATSIM:LBSF 071100Z 28006MPS 9999 FEW017 OVC048 00/M03 Q1013 NOSIG
11:11 VOICE CATALONIAN/EU TOUR
11:21 Parking Brakes off
11:25 Take-off
11:25 Take off Weight: 160892 Lbs
11:25 Wind: 217º @ 014 Knots Heading: 247º
11:25 POS N36º 24´ 33´´ E028º 05´ 01´´
11:25 Gear Up: 175 Knots
11:25 Flaps:5 at 175 Knots
11:25 Flaps:4 at178 Knots
11:26 Flaps:3 at 183 Knots
11:26 Flaps:2 at 173 Knots
11:27 Flaps:0 at 175 Knots
11:40 Wind:271º@107 Knots Heading: 324º Ground Speed: 404 Knots Altitude 27683 ft
11:45 TOC
11:45 Fuel Weight: 41131 Lb
11:55 Wind:271º@100 Knots Heading: 309º Ground Speed: 380 Knots Altitude 33894 ft
12:10 Wind:287º@052 Knots Heading: 304º Ground Speed: 398 Knots Altitude 33963 ft
12:25 Wind:280º@046 Knots Heading: 329º Ground Speed: 418 Knots Altitude 33982 ft
12:29 TOD
12:29 Fuel Weight: 36823 Lb
12:40 Wind:294º@020 Knots Heading: 068º Ground Speed: 342 Knots Altitude 11204 ft
12:47 Flaps:2 at 187 Knots
12:47 Flaps:3 at 186 Knots
12:47 Flaps:4 at 188 Knots
12:49 Gear Down: 191 Knots
12:49 Flaps:5 at 191 Knots
12:50 Flaps:6 at 180 Knots
12:50 Flaps:7 at 158 Knots
12:50 Flaps:8 at 140 Knots
12:53 TouchDown:Rate -147 ft/min Speed: 131 Knots
12:53 VATSIM:LBSF 071230Z 29005MPS 9999 FEW025 OVC050 00/M04 Q1013 NOSIG
12:53 Land
12:53 Wind:277º@011 Knots
12:53 Heading: 275º
12:53 Flight Duration: 01:28
12:53 Landing Weight: 150901 Lbs
12:53 POS N42º 41´ 45´´ E023º 24´ 26´´
12:56 Parking brakes on
12:56 Block to Block Duration: 01:35
12:56 Final Fuel: 35083 Lbls
12:56 Spent Fuel: 10974 Lbls
12:56 Flight Length: 520 NM
12:56 TOD Land Length: 114 NM

Exportar CSV

Powered by Drupal - Modified by Danger4k